createdAt,value
2018-11-02T00:00:41.336Z,2.97
2018-11-02T00:03:11.018Z,2.90
2018-11-02T00:05:39.633Z,3.10
2018-11-02T00:08:09.254Z,3.10
2018-11-02T00:10:38.238Z,3.23
2018-11-02T00:13:06.930Z,3.40
2018-11-02T00:15:35.723Z,2.90
2018-11-02T00:18:04.407Z,2.90
2018-11-02T00:20:33.394Z,3.27
2018-11-02T00:23:02.412Z,3.40
2018-11-02T00:25:31.035Z,3.40
2018-11-02T00:27:59.730Z,3.70
2018-11-02T00:30:28.660Z,3.03
2018-11-02T00:32:57.396Z,3.07
2018-11-02T00:35:25.995Z,3.40
2018-11-02T00:37:54.645Z,3.50
2018-11-02T00:40:23.644Z,3.00
2018-11-02T00:42:52.504Z,2.80
2018-11-02T00:45:21.200Z,2.90
2018-11-02T00:47:49.881Z,2.90
2018-11-02T00:50:18.469Z,2.87
2018-11-02T00:52:48.307Z,3.40
2018-11-02T00:55:17.695Z,3.00
2018-11-02T00:57:46.700Z,3.33
2018-11-02T01:00:16.002Z,3.43
2018-11-02T01:02:45.568Z,2.90
2018-11-02T01:05:14.686Z,2.63
2018-11-02T01:07:43.316Z,2.33
2018-11-02T01:10:12.181Z,2.70
2018-11-02T01:12:40.914Z,2.70
2018-11-02T01:15:10.398Z,2.57
2018-11-02T01:17:40.248Z,2.37
2018-11-02T01:20:10.495Z,2.70
2018-11-02T01:22:39.374Z,2.60
2018-11-02T01:25:08.563Z,2.60
2018-11-02T01:27:37.597Z,2.90
2018-11-02T01:30:06.756Z,2.73
2018-11-02T01:32:35.438Z,2.93
2018-11-02T01:35:05.037Z,2.77
2018-11-02T01:37:33.724Z,2.80
2018-11-02T01:40:02.385Z,2.27
2018-11-02T01:42:31.014Z,2.83
2018-11-02T01:44:59.662Z,2.50
2018-11-02T01:47:28.267Z,2.40
2018-11-02T01:49:56.992Z,2.30
2018-11-02T01:52:25.596Z,2.00
2018-11-02T01:54:54.241Z,2.10
2018-11-02T01:57:23.032Z,1.60
2018-11-02T01:59:52.022Z,1.60
2018-11-02T02:02:20.928Z,1.77
2018-11-02T02:04:49.449Z,1.90
2018-11-02T02:07:18.125Z,2.17
2018-11-02T02:09:46.770Z,2.50
2018-11-02T02:12:15.488Z,2.30
2018-11-02T02:14:44.140Z,2.30
2018-11-02T02:17:12.781Z,2.60
2018-11-02T02:19:41.563Z,2.40
2018-11-02T02:22:10.505Z,2.20
2018-11-02T02:24:39.209Z,2.53
2018-11-02T02:27:08.076Z,2.40
2018-11-02T02:29:36.993Z,2.60
2018-11-02T02:32:06.278Z,2.27
2018-11-02T02:34:34.959Z,2.40
2018-11-02T02:37:03.705Z,2.60
2018-11-02T02:39:32.373Z,2.40
2018-11-02T02:42:01.060Z,2.70
2018-11-02T02:44:29.764Z,2.40
2018-11-02T02:46:58.457Z,2.83
2018-11-02T02:49:27.153Z,2.50
2018-11-02T02:51:55.871Z,2.53
2018-11-02T02:54:24.599Z,2.33
2018-11-02T02:56:53.309Z,2.10
2018-11-02T02:59:21.977Z,2.23
2018-11-02T03:01:50.776Z,2.27
2018-11-02T03:04:19.446Z,2.30
2018-11-02T03:06:48.137Z,2.30
2018-11-02T03:09:16.822Z,2.57
2018-11-02T03:11:45.535Z,2.47
2018-11-02T03:14:14.236Z,2.40
2018-11-02T03:16:43.152Z,2.50
2018-11-02T03:19:11.920Z,2.10
2018-11-02T03:21:40.871Z,2.00
2018-11-02T03:24:09.582Z,2.00
2018-11-02T03:26:38.284Z,1.87
2018-11-02T03:29:07.008Z,1.93
2018-11-02T03:31:35.692Z,2.13
2018-11-02T03:34:04.696Z,1.93
2018-11-02T03:36:33.374Z,2.07
2018-11-02T03:39:02.169Z,2.10
2018-11-02T03:41:30.833Z,2.03
2018-11-02T03:43:59.498Z,1.80
2018-11-02T03:46:28.214Z,1.73
2018-11-02T03:48:56.948Z,1.40
2018-11-02T03:51:25.633Z,1.77
2018-11-02T03:53:54.753Z,2.00
2018-11-02T03:56:23.425Z,2.40
2018-11-02T03:58:52.208Z,2.10
2018-11-02T04:01:21.126Z,2.30
2018-11-02T04:03:50.000Z,2.10
2018-11-02T04:06:18.696Z,1.80
2018-11-02T04:08:47.496Z,1.70
2018-11-02T04:11:16.182Z,2.10
2018-11-02T04:13:44.854Z,1.80
2018-11-02T04:16:13.504Z,1.63
2018-11-02T04:18:42.225Z,1.80
2018-11-02T04:21:10.868Z,1.70
2018-11-02T04:23:39.581Z,1.70
2018-11-02T04:26:08.290Z,1.77
2018-11-02T04:28:37.022Z,1.57
2018-11-02T04:31:06.101Z,1.57
2018-11-02T04:33:34.764Z,1.90
2018-11-02T04:36:03.530Z,7.57
2018-11-02T04:38:32.219Z,5.17
2018-11-02T04:41:00.880Z,2.53
2018-11-02T04:43:29.759Z,2.30
2018-11-02T04:45:58.421Z,2.17
2018-11-02T04:48:27.115Z,2.43
2018-11-02T04:50:55.925Z,4.00
2018-11-02T04:53:24.540Z,4.20
2018-11-02T04:55:53.261Z,5.10
2018-11-02T04:58:21.958Z,4.27
2018-11-02T05:00:50.607Z,4.30
2018-11-02T05:03:19.609Z,3.90
2018-11-02T05:05:48.275Z,3.23
2018-11-02T05:08:16.993Z,3.10
2018-11-02T05:10:45.709Z,3.67
2018-11-02T05:13:14.393Z,3.50
2018-11-02T05:15:43.179Z,3.30
2018-11-02T05:18:12.174Z,3.20
2018-11-02T05:20:40.858Z,3.80
2018-11-02T05:23:09.570Z,3.40
2018-11-02T05:25:38.341Z,2.83
2018-11-02T05:28:07.080Z,3.10
2018-11-02T05:30:35.798Z,3.13
2018-11-02T05:33:04.892Z,2.83
2018-11-02T05:35:33.782Z,3.00
2018-11-02T05:38:02.508Z,2.60
2018-11-02T05:40:33.163Z,2.47
2018-11-02T05:43:03.421Z,2.47
2018-11-02T05:45:34.042Z,2.17
2018-11-02T05:48:03.072Z,2.10
2018-11-02T05:50:31.769Z,2.40
2018-11-02T05:53:00.468Z,2.30
2018-11-02T05:55:29.176Z,1.90
2018-11-02T05:57:57.864Z,2.33
2018-11-02T06:00:26.560Z,2.60
2018-11-02T06:02:55.253Z,2.80
2018-11-02T06:05:23.975Z,2.20
2018-11-02T06:07:52.909Z,2.40
2018-11-02T06:10:21.557Z,2.47
2018-11-02T06:12:50.263Z,2.80
2018-11-02T06:15:18.993Z,2.60
2018-11-02T06:17:47.659Z,2.30
2018-11-02T06:20:16.369Z,2.43
2018-11-02T06:22:45.072Z,2.10
2018-11-02T06:25:13.746Z,2.10
2018-11-02T06:27:42.399Z,1.90
2018-11-02T06:30:11.733Z,2.03
2018-11-02T06:32:40.397Z,2.00
2018-11-02T06:35:09.750Z,2.30
2018-11-02T06:37:38.445Z,2.27
2018-11-02T06:40:07.484Z,2.97
2018-11-02T06:42:36.213Z,2.00
2018-11-02T06:45:05.511Z,1.93
2018-11-02T06:47:40.597Z,2.10
2018-11-02T06:50:09.532Z,1.97
2018-11-02T06:52:38.236Z,5.43
2018-11-02T06:55:07.831Z,2.30
2018-11-02T06:57:36.647Z,2.33
2018-11-02T07:00:09.187Z,2.30
2018-11-02T07:02:37.799Z,2.27
2018-11-02T07:05:06.563Z,2.00
2018-11-02T07:07:35.889Z,2.40
2018-11-02T07:10:04.625Z,2.40
2018-11-02T07:12:33.401Z,2.10
2018-11-02T07:15:02.116Z,2.00
2018-11-02T07:17:30.838Z,2.77
2018-11-02T07:19:59.537Z,2.43
2018-11-02T07:22:28.281Z,2.50
2018-11-02T07:24:57.104Z,2.47
2018-11-02T07:27:25.794Z,2.60
2018-11-02T07:29:54.460Z,3.00
2018-11-02T07:32:23.175Z,2.90
2018-11-02T07:34:51.873Z,3.50
2018-11-02T07:37:20.676Z,3.57
2018-11-02T07:39:49.381Z,3.10
2018-11-02T07:42:18.126Z,3.13
2018-11-02T07:44:46.795Z,3.13
2018-11-02T07:47:15.497Z,3.00
2018-11-02T07:49:44.396Z,4.10
2018-11-02T07:52:13.030Z,2.80
2018-11-02T07:54:41.957Z,2.70
2018-11-02T07:57:11.864Z,2.50
2018-11-02T07:59:40.658Z,2.50
2018-11-02T08:02:09.395Z,2.80
2018-11-02T08:04:38.093Z,2.60
2018-11-02T08:07:07.321Z,2.40
2018-11-02T08:09:37.387Z,2.50
2018-11-02T08:12:06.848Z,2.70
2018-11-02T08:14:35.514Z,3.10
2018-11-02T08:17:04.287Z,3.00
2018-11-02T08:19:32.940Z,2.50
2018-11-02T08:22:01.753Z,4.00
2018-11-02T08:24:30.666Z,4.47
2018-11-02T08:26:59.514Z,3.73
2018-11-02T08:29:28.192Z,3.20
2018-11-02T08:31:56.882Z,4.40
2018-11-02T08:34:25.474Z,3.30
2018-11-02T08:36:57.543Z,2.87
2018-11-02T08:39:26.416Z,3.20
2018-11-02T08:41:55.099Z,2.90
2018-11-02T08:44:23.813Z,3.27
2018-11-02T08:46:52.505Z,4.03
2018-11-02T08:49:21.229Z,3.97
2018-11-02T08:51:49.969Z,5.70
2018-11-02T08:54:18.678Z,5.47
2018-11-02T08:56:47.413Z,5.50
2018-11-02T08:59:16.279Z,5.10
2018-11-02T09:01:44.851Z,4.97
2018-11-02T09:04:13.972Z,3.93
2018-11-02T09:06:42.625Z,4.10
2018-11-02T09:09:11.789Z,3.67
2018-11-02T09:11:41.463Z,3.70
2018-11-02T09:14:10.622Z,3.70
2018-11-02T09:16:39.354Z,3.30
2018-11-02T09:19:08.234Z,3.60
2018-11-02T09:21:36.933Z,3.37
2018-11-02T09:24:06.284Z,4.07
2018-11-02T09:26:34.994Z,3.03
2018-11-02T09:29:03.943Z,4.13
2018-11-02T09:31:32.610Z,3.10
2018-11-02T09:34:01.587Z,2.43
2018-11-02T09:36:30.297Z,2.37
2018-11-02T09:38:59.181Z,3.00
2018-11-02T09:41:27.858Z,2.50
2018-11-02T09:43:56.874Z,2.33
2018-11-02T09:46:25.590Z,2.50
2018-11-02T09:48:54.316Z,2.80
2018-11-02T09:51:23.301Z,4.20
2018-11-02T09:53:51.985Z,3.90
2018-11-02T09:56:21.699Z,3.50
2018-11-02T09:58:50.414Z,3.13
2018-11-02T10:01:19.166Z,2.90
2018-11-02T10:03:47.870Z,2.90
2018-11-02T10:06:19.524Z,2.90
2018-11-02T10:08:48.975Z,2.70
2018-11-02T10:11:17.791Z,2.53
2018-11-02T10:13:46.482Z,2.60
2018-11-02T10:16:15.193Z,2.50
2018-11-02T10:18:43.965Z,1.90
2018-11-02T10:21:12.840Z,1.70
2018-11-02T10:23:41.568Z,1.60
2018-11-02T10:26:10.346Z,2.20
2018-11-02T10:28:39.135Z,2.00
2018-11-02T10:31:07.870Z,2.07
2018-11-02T10:33:36.763Z,1.93
2018-11-02T10:36:06.409Z,2.20
2018-11-02T10:38:35.360Z,1.80
2018-11-02T10:41:05.234Z,1.97
2018-11-02T10:43:34.976Z,1.63
2018-11-02T10:46:04.185Z,1.83
2018-11-02T10:48:32.878Z,2.23
2018-11-02T10:51:01.733Z,2.00
2018-11-02T10:53:30.757Z,1.40
2018-11-02T10:55:59.482Z,1.47
2018-11-02T10:58:28.198Z,1.47
2018-11-02T11:01:02.433Z,1.50
2018-11-02T11:03:31.003Z,2.40
2018-11-02T11:05:59.732Z,1.40
2018-11-02T11:08:30.561Z,1.17
2018-11-02T11:10:59.378Z,1.20
2018-11-02T11:13:28.464Z,1.20
2018-11-02T11:15:56.976Z,1.43
2018-11-02T11:18:25.693Z,1.13
2018-11-02T11:20:54.391Z,1.00
2018-11-02T11:23:23.009Z,1.13
2018-11-02T11:25:52.812Z,1.00
2018-11-02T11:28:21.775Z,0.83
2018-11-02T11:30:50.840Z,1.10
2018-11-02T11:33:19.570Z,1.03
2018-11-02T11:35:48.304Z,0.97
2018-11-02T11:38:17.094Z,0.90
2018-11-02T11:40:45.890Z,1.07
2018-11-02T11:43:14.576Z,1.17
2018-11-02T11:45:43.312Z,1.07
2018-11-02T11:48:12.172Z,1.00
2018-11-02T11:50:40.863Z,1.10
2018-11-02T11:53:09.653Z,0.93
2018-11-02T11:55:38.376Z,1.20
2018-11-02T11:58:07.085Z,1.10
2018-11-02T12:00:37.039Z,1.10
2018-11-02T12:03:05.939Z,0.87
2018-11-02T12:05:34.778Z,0.90
2018-11-02T12:08:03.445Z,0.80
2018-11-02T12:10:32.293Z,0.93
2018-11-02T12:13:01.053Z,1.00
2018-11-02T12:15:31.092Z,0.90
2018-11-02T12:18:01.310Z,1.00
2018-11-02T12:20:31.227Z,0.80
2018-11-02T12:23:02.765Z,0.90
2018-11-02T12:25:32.187Z,0.80
2018-11-02T12:28:00.904Z,0.80
2018-11-02T12:30:30.146Z,0.90
2018-11-02T12:32:58.880Z,0.90
2018-11-02T12:35:27.612Z,1.00
2018-11-02T12:37:56.466Z,1.00
2018-11-02T12:40:25.463Z,0.90
2018-11-02T12:42:55.585Z,1.10
2018-11-02T12:45:29.635Z,1.00
2018-11-02T12:47:58.403Z,0.90
2018-11-02T12:50:28.321Z,1.30
2018-11-02T12:52:58.539Z,1.30
2018-11-02T12:55:27.205Z,0.83
2018-11-02T12:57:55.950Z,1.00
2018-11-02T13:00:25.901Z,1.10
2018-11-02T13:02:55.197Z,1.00
2018-11-02T13:05:24.618Z,1.10
2018-11-02T13:07:53.312Z,1.00
2018-11-02T13:10:22.770Z,0.80
2018-11-02T13:12:51.962Z,0.80
2018-11-02T13:15:22.017Z,0.90
2018-11-02T13:17:51.088Z,0.90
2018-11-02T13:20:19.903Z,0.70
2018-11-02T13:22:49.619Z,1.00
2018-11-02T13:25:21.514Z,1.00
2018-11-02T13:27:50.778Z,0.63
2018-11-02T13:30:19.675Z,0.90
2018-11-02T13:32:48.295Z,1.17
2018-11-02T13:35:18.250Z,1.13
2018-11-02T13:37:47.556Z,1.10
2018-11-02T13:40:18.627Z,1.00
2018-11-02T13:42:52.833Z,0.90
2018-11-02T13:45:23.161Z,0.83
2018-11-02T13:47:52.102Z,1.00
2018-11-02T13:50:20.825Z,0.90
2018-11-02T13:52:49.592Z,0.80
2018-11-02T13:55:18.220Z,0.90
2018-11-02T13:57:47.005Z,0.80
2018-11-02T14:00:17.441Z,0.97
2018-11-02T14:02:51.409Z,0.93
2018-11-02T14:05:21.811Z,0.83
2018-11-02T14:07:50.687Z,0.87
2018-11-02T14:10:19.384Z,1.10
2018-11-02T14:12:48.121Z,1.10
2018-11-02T14:15:17.401Z,1.00
2018-11-02T14:17:46.396Z,1.10
2018-11-02T14:20:15.389Z,1.10
2018-11-02T14:22:44.200Z,0.90
2018-11-02T14:25:15.307Z,1.07
2018-11-02T14:27:44.661Z,1.10
2018-11-02T14:30:15.822Z,1.20
2018-11-02T14:32:45.090Z,1.20
2018-11-02T14:35:15.178Z,0.77
2018-11-02T14:37:45.370Z,1.20
2018-11-02T14:40:15.040Z,0.90
2018-11-02T14:42:44.029Z,0.80
2018-11-02T14:45:14.983Z,0.97
2018-11-02T14:47:49.955Z,0.90
2018-11-02T14:50:18.669Z,1.00
2018-11-02T14:52:47.620Z,1.00
2018-11-02T14:55:16.382Z,1.07
2018-11-02T14:57:48.405Z,1.00
2018-11-02T15:00:18.350Z,1.00
2018-11-02T15:02:48.139Z,0.97
2018-11-02T15:05:16.938Z,1.10
2018-11-02T15:07:47.734Z,1.33
2018-11-02T15:10:17.426Z,1.27
2018-11-02T15:12:56.382Z,1.00
2018-11-02T15:15:25.156Z,1.10
2018-11-02T15:17:53.779Z,1.00
2018-11-02T15:20:22.489Z,1.13
2018-11-02T15:22:51.193Z,1.17
2018-11-02T15:25:19.951Z,1.10
2018-11-02T15:27:48.695Z,1.20
2018-11-02T15:30:17.373Z,1.13
2018-11-02T15:32:46.132Z,1.40
2018-11-02T15:35:14.924Z,1.20
2018-11-02T15:37:44.194Z,1.47
2018-11-02T15:40:13.929Z,1.20
2018-11-02T15:42:43.189Z,1.57
2018-11-02T15:45:13.649Z,1.97
2018-11-02T15:47:43.365Z,2.23
2018-11-02T15:50:12.550Z,2.40
2018-11-02T15:52:41.975Z,2.60
2018-11-02T15:55:12.566Z,2.57
2018-11-02T15:57:41.298Z,2.23
2018-11-02T16:00:13.397Z,2.40
2018-11-02T16:02:42.075Z,2.57
2018-11-02T16:05:18.566Z,2.10
2018-11-02T16:07:47.276Z,2.10
2018-11-02T16:10:16.076Z,2.00
2018-11-02T16:12:45.015Z,2.50
2018-11-02T16:15:13.967Z,1.90
2018-11-02T16:17:42.601Z,1.50
2018-11-02T16:20:13.253Z,1.90
2018-11-02T16:22:42.285Z,1.93
2018-11-02T16:25:11.143Z,2.13
2018-11-02T16:27:40.239Z,1.90
2018-11-02T16:30:09.872Z,1.60
2018-11-02T16:32:38.505Z,1.63
2018-11-02T16:35:08.468Z,1.80
2018-11-02T16:37:37.372Z,1.60
2018-11-02T16:40:09.187Z,2.10
2018-11-02T16:42:37.859Z,1.83
2018-11-02T16:45:09.148Z,2.33
2018-11-02T16:47:39.516Z,2.00
2018-11-02T16:50:10.063Z,1.77
2018-11-02T16:52:38.744Z,2.37
2018-11-02T16:55:07.898Z,2.47
2018-11-02T16:57:36.900Z,2.97
2018-11-02T17:00:10.196Z,2.50
2018-11-02T17:02:39.091Z,2.53
2018-11-02T17:05:08.217Z,2.57
2018-11-02T17:07:37.191Z,2.10
2018-11-02T17:10:07.417Z,1.90
2018-11-02T17:12:36.159Z,2.43
2018-11-02T17:15:05.105Z,2.17
2018-11-02T17:17:33.916Z,2.33
2018-11-02T17:20:02.756Z,2.50
2018-11-02T17:22:32.051Z,2.30
2018-11-02T17:25:00.747Z,2.43
2018-11-02T17:27:29.419Z,2.43
2018-11-02T17:29:58.221Z,2.60
2018-11-02T17:32:26.938Z,2.63
2018-11-02T17:34:55.641Z,2.87
2018-11-02T17:37:24.426Z,2.50
2018-11-02T17:39:53.067Z,2.30
2018-11-02T17:42:21.771Z,4.30
2018-11-02T17:44:50.627Z,3.20
2018-11-02T17:47:19.328Z,2.17
2018-11-02T17:49:48.135Z,2.03
2018-11-02T17:52:16.884Z,5.70
2018-11-02T17:54:45.599Z,7.63
2018-11-02T17:57:14.294Z,5.20
2018-11-02T17:59:43.043Z,5.03
2018-11-02T18:02:11.718Z,3.80
2018-11-02T18:04:40.477Z,3.13
2018-11-02T18:07:09.400Z,3.20
2018-11-02T18:09:38.288Z,3.20
2018-11-02T18:12:07.333Z,3.40
2018-11-02T18:14:36.311Z,2.83
2018-11-02T18:17:04.993Z,3.00
2018-11-02T18:19:33.730Z,3.00
2018-11-02T18:22:02.394Z,3.37
2018-11-02T18:24:31.123Z,4.37
2018-11-02T18:26:59.843Z,3.90
2018-11-02T18:29:28.504Z,3.60
2018-11-02T18:31:57.214Z,3.20
2018-11-02T18:34:25.850Z,3.97
2018-11-02T18:36:54.569Z,3.63
2018-11-02T18:39:23.257Z,3.80
2018-11-02T18:41:51.930Z,3.73
2018-11-02T18:44:20.897Z,4.00
2018-11-02T18:46:49.630Z,3.50
2018-11-02T18:49:18.352Z,3.80
2018-11-02T18:51:47.114Z,3.60
2018-11-02T18:54:15.710Z,3.90
2018-11-02T18:56:44.426Z,4.30
2018-11-02T18:59:13.104Z,4.33
2018-11-02T19:01:41.826Z,3.07
2018-11-02T19:04:10.677Z,3.20
2018-11-02T19:06:39.364Z,3.17
2018-11-02T19:09:09.693Z,3.13
2018-11-02T19:11:38.723Z,2.97
2018-11-02T19:14:07.503Z,3.13
2018-11-02T19:16:37.319Z,3.10
2018-11-02T19:19:11.363Z,4.50
2018-11-02T19:21:40.168Z,3.97
2018-11-02T19:24:08.840Z,4.00
2018-11-02T19:26:37.559Z,4.90
2018-11-02T19:29:06.697Z,5.13
2018-11-02T19:31:35.437Z,5.57
2018-11-02T19:34:04.271Z,5.20
2018-11-02T19:36:32.940Z,5.20
2018-11-02T19:39:01.689Z,5.67
2018-11-02T19:41:31.157Z,5.27
2018-11-02T19:43:59.891Z,5.87
2018-11-02T19:46:28.549Z,5.63
2018-11-02T19:48:57.285Z,6.07
2018-11-02T19:51:25.956Z,5.97
2018-11-02T19:53:55.183Z,5.83
2018-11-02T19:56:24.061Z,5.70
2018-11-02T19:58:52.723Z,6.47
2018-11-02T20:01:22.299Z,6.90
2018-11-02T20:03:51.368Z,6.53
2018-11-02T20:06:20.046Z,5.60
2018-11-02T20:08:48.785Z,6.90
2018-11-02T20:11:17.592Z,6.60
2018-11-02T20:13:46.365Z,7.27
2018-11-02T20:16:15.068Z,7.60
2018-11-02T20:18:44.116Z,7.47
2018-11-02T20:21:12.785Z,8.13
2018-11-02T20:23:41.480Z,8.17
2018-11-02T20:26:10.205Z,8.37
2018-11-02T20:28:38.928Z,8.27
2018-11-02T20:31:08.205Z,6.97
2018-11-02T20:33:37.760Z,6.30
2018-11-02T20:36:06.793Z,6.20
2018-11-02T20:38:35.555Z,6.43
2018-11-02T20:41:05.277Z,6.60
2018-11-02T20:43:34.029Z,5.80
2018-11-02T20:46:03.225Z,4.80
2018-11-02T20:48:38.526Z,5.00
2018-11-02T20:51:08.016Z,4.93
2018-11-02T20:53:36.768Z,4.83
2018-11-02T20:56:05.950Z,4.87
2018-11-02T20:58:34.953Z,4.70
2018-11-02T21:01:03.705Z,5.03
2018-11-02T21:03:32.477Z,5.10
2018-11-02T21:06:01.718Z,5.30
2018-11-02T21:08:39.057Z,5.40
2018-11-02T21:11:08.307Z,5.27
2018-11-02T21:13:37.060Z,4.30
2018-11-02T21:16:06.354Z,5.20
2018-11-02T21:18:43.685Z,4.80
2018-11-02T21:21:12.492Z,4.83
2018-11-02T21:23:41.104Z,4.97
2018-11-02T21:26:09.819Z,4.47
2018-11-02T21:28:39.002Z,4.93
2018-11-02T21:31:07.768Z,4.50
2018-11-02T21:33:36.526Z,4.23
2018-11-02T21:36:05.557Z,4.53
2018-11-02T21:38:34.225Z,4.60
2018-11-02T21:41:02.951Z,4.50
2018-11-02T21:43:31.649Z,5.23
2018-11-02T21:46:00.346Z,4.30
2018-11-02T21:48:29.110Z,5.00
2018-11-02T21:50:57.832Z,4.80
2018-11-02T21:53:26.723Z,4.37
2018-11-02T21:55:55.360Z,4.63
2018-11-02T21:58:24.391Z,4.40
2018-11-02T22:00:54.680Z,4.53
2018-11-02T22:03:23.521Z,4.53
2018-11-02T22:05:53.041Z,4.70
2018-11-02T22:08:21.740Z,4.60
2018-11-02T22:10:51.440Z,4.73
2018-11-02T22:13:20.265Z,5.10
2018-11-02T22:15:48.958Z,4.63
2018-11-02T22:18:17.641Z,4.90
2018-11-02T22:20:46.323Z,4.67
2018-11-02T22:23:15.106Z,4.53
2018-11-02T22:25:43.761Z,4.77
2018-11-02T22:28:12.571Z,4.27
2018-11-02T22:30:42.290Z,4.97
2018-11-02T22:33:17.656Z,4.80
2018-11-02T22:35:46.280Z,4.80
2018-11-02T22:38:15.533Z,4.90
2018-11-02T22:40:44.172Z,4.43
2018-11-02T22:43:13.916Z,4.70
2018-11-02T22:45:42.589Z,5.23
2018-11-02T22:48:16.536Z,5.17
2018-11-02T22:50:45.883Z,5.00
2018-11-02T22:53:14.643Z,5.13
2018-11-02T22:55:43.321Z,4.70
2018-11-02T22:58:12.057Z,5.47
2018-11-02T23:00:45.982Z,4.73
2018-11-02T23:03:14.693Z,4.60
2018-11-02T23:05:43.455Z,5.17
2018-11-02T23:08:12.089Z,4.63
2018-11-02T23:10:40.787Z,5.00
2018-11-02T23:13:09.609Z,5.00
2018-11-02T23:15:38.298Z,4.90
2018-11-02T23:18:07.037Z,5.03
2018-11-02T23:20:35.766Z,5.10
2018-11-02T23:23:04.579Z,5.47
2018-11-02T23:25:33.205Z,5.07
2018-11-02T23:28:02.179Z,5.00
2018-11-02T23:30:31.577Z,4.90
2018-11-02T23:33:00.567Z,4.73
2018-11-02T23:35:29.231Z,4.77
2018-11-02T23:37:57.937Z,4.23
2018-11-02T23:40:26.556Z,4.90
2018-11-02T23:42:55.306Z,4.43
2018-11-02T23:45:24.157Z,5.00
2018-11-02T23:47:56.826Z,4.93
2018-11-02T23:50:25.984Z,5.10
2018-11-02T23:52:54.680Z,4.57
2018-11-02T23:55:23.174Z,4.77
2018-11-02T23:57:53.270Z,5.10
